sensor_id;sensor_type;location;lat;lon;timestamp;P1;durP1;ratioP1;P2;durP2;ratioP2
38427;SDS011;24211;49.980;19.776;2023-02-03T00:06:52;14.70;;;5.03;;
38427;SDS011;24211;49.980;19.776;2023-02-03T00:09:19;15.10;;;5.63;;
38427;SDS011;24211;49.980;19.776;2023-02-03T00:11:47;13.73;;;5.30;;
38427;SDS011;24211;49.980;19.776;2023-02-03T00:14:14;12.52;;;5.15;;
38427;SDS011;24211;49.980;19.776;2023-02-03T00:16:43;12.63;;;5.13;;
38427;SDS011;24211;49.980;19.776;2023-02-03T00:19:10;10.70;;;5.47;;
38427;SDS011;24211;49.980;19.776;2023-02-03T00:21:38;17.83;;;6.03;;
38427;SDS011;24211;49.980;19.776;2023-02-03T00:24:05;14.02;;;5.45;;
38427;SDS011;24211;49.980;19.776;2023-02-03T00:26:33;13.63;;;5.18;;
38427;SDS011;24211;49.980;19.776;2023-02-03T00:29:02;14.15;;;5.45;;
38427;SDS011;24211;49.980;19.776;2023-02-03T00:31:29;12.90;;;5.40;;
38427;SDS011;24211;49.980;19.776;2023-02-03T00:33:57;11.68;;;5.15;;
38427;SDS011;24211;49.980;19.776;2023-02-03T00:36:25;12.98;;;5.10;;
38427;SDS011;24211;49.980;19.776;2023-02-03T00:38:52;12.05;;;5.07;;
38427;SDS011;24211;49.980;19.776;2023-02-03T00:41:20;15.90;;;5.60;;
38427;SDS011;24211;49.980;19.776;2023-02-03T00:43:50;12.63;;;5.20;;
38427;SDS011;24211;49.980;19.776;2023-02-03T00:46:18;11.60;;;5.10;;
38427;SDS011;24211;49.980;19.776;2023-02-03T00:48:45;12.75;;;4.65;;
38427;SDS011;24211;49.980;19.776;2023-02-03T00:51:13;13.18;;;4.90;;
38427;SDS011;24211;49.980;19.776;2023-02-03T00:53:40;12.00;;;4.95;;
38427;SDS011;24211;49.980;19.776;2023-02-03T00:56:08;15.30;;;5.30;;
38427;SDS011;24211;49.980;19.776;2023-02-03T00:58:38;11.65;;;4.95;;
38427;SDS011;24211;49.980;19.776;2023-02-03T01:01:06;14.43;;;5.45;;
38427;SDS011;24211;49.980;19.776;2023-02-03T01:03:35;12.40;;;4.85;;
38427;SDS011;24211;49.980;19.776;2023-02-03T01:08:45;11.70;;;5.20;;
38427;SDS011;24211;49.980;19.776;2023-02-03T01:11:16;17.05;;;5.35;;
38427;SDS011;24211;49.980;19.776;2023-02-03T01:13:50;14.77;;;5.53;;
38427;SDS011;24211;49.980;19.776;2023-02-03T01:16:20;12.98;;;4.95;;
38427;SDS011;24211;49.980;19.776;2023-02-03T01:18:50;10.60;;;4.75;;
38427;SDS011;24211;49.980;19.776;2023-02-03T01:21:21;12.13;;;4.68;;
38427;SDS011;24211;49.980;19.776;2023-02-03T01:23:52;9.88;;;4.13;;
38427;SDS011;24211;49.980;19.776;2023-02-03T01:26:20;12.80;;;4.03;;
38427;SDS011;24211;49.980;19.776;2023-02-03T01:28:50;10.20;;;4.60;;
38427;SDS011;24211;49.980;19.776;2023-02-03T01:31:20;13.60;;;3.97;;
38427;SDS011;24211;49.980;19.776;2023-02-03T01:33:53;11.00;;;4.25;;
38427;SDS011;24211;49.980;19.776;2023-02-03T01:36:23;12.98;;;4.45;;
38427;SDS011;24211;49.980;19.776;2023-02-03T01:38:53;9.65;;;4.03;;
38427;SDS011;24211;49.980;19.776;2023-02-03T01:41:22;11.48;;;4.95;;
38427;SDS011;24211;49.980;19.776;2023-02-03T01:43:57;10.43;;;4.13;;
38427;SDS011;24211;49.980;19.776;2023-02-03T01:50:07;10.02;;;4.28;;
38427;SDS011;24211;49.980;19.776;2023-02-03T01:52:43;11.93;;;4.70;;
38427;SDS011;24211;49.980;19.776;2023-02-03T01:55:18;11.07;;;4.72;;
38427;SDS011;24211;49.980;19.776;2023-02-03T01:57:53;10.98;;;4.88;;
38427;SDS011;24211;49.980;19.776;2023-02-03T02:00:30;11.18;;;4.70;;
38427;SDS011;24211;49.980;19.776;2023-02-03T02:02:58;10.35;;;4.55;;
38427;SDS011;24211;49.980;19.776;2023-02-03T02:05:33;13.25;;;4.65;;
38427;SDS011;24211;49.980;19.776;2023-02-03T02:08:11;10.32;;;5.05;;
38427;SDS011;24211;49.980;19.776;2023-02-03T02:10:40;10.85;;;4.78;;
38427;SDS011;24211;49.980;19.776;2023-02-03T02:13:08;12.65;;;4.60;;
38427;SDS011;24211;49.980;19.776;2023-02-03T02:15:48;12.15;;;4.82;;
38427;SDS011;24211;49.980;19.776;2023-02-03T02:44:48;11.95;;;4.32;;
38427;SDS011;24211;49.980;19.776;2023-02-03T02:47:22;10.05;;;4.60;;
38427;SDS011;24211;49.980;19.776;2023-02-03T02:49:58;12.88;;;4.50;;
38427;SDS011;24211;49.980;19.776;2023-02-03T02:52:41;10.32;;;4.35;;
38427;SDS011;24211;49.980;19.776;2023-02-03T02:55:15;10.02;;;4.60;;
38427;SDS011;24211;49.980;19.776;2023-02-03T03:00:30;11.75;;;4.60;;
38427;SDS011;24211;49.980;19.776;2023-02-03T03:03:06;9.70;;;4.38;;
38427;SDS011;24211;49.980;19.776;2023-02-03T03:05:53;8.77;;;4.38;;
38427;SDS011;24211;49.980;19.776;2023-02-03T03:08:35;10.45;;;4.45;;
38427;SDS011;24211;49.980;19.776;2023-02-03T03:11:10;10.77;;;4.20;;
38427;SDS011;24211;49.980;19.776;2023-02-03T03:13:40;10.38;;;4.25;;
38427;SDS011;24211;49.980;19.776;2023-02-03T03:16:15;8.93;;;4.20;;
38427;SDS011;24211;49.980;19.776;2023-02-03T03:18:57;8.23;;;3.70;;
38427;SDS011;24211;49.980;19.776;2023-02-03T03:21:37;9.27;;;3.65;;
38427;SDS011;24211;49.980;19.776;2023-02-03T03:24:19;7.68;;;3.53;;
38427;SDS011;24211;49.980;19.776;2023-02-03T03:26:58;9.18;;;3.63;;
38427;SDS011;24211;49.980;19.776;2023-02-03T03:29:38;7.55;;;3.60;;
38427;SDS011;24211;49.980;19.776;2023-02-03T03:32:19;9.68;;;3.33;;
38427;SDS011;24211;49.980;19.776;2023-02-03T03:34:48;9.02;;;3.28;;
38427;SDS011;24211;49.980;19.776;2023-02-03T03:42:40;8.13;;;2.97;;
38427;SDS011;24211;49.980;19.776;2023-02-03T03:45:29;9.70;;;3.05;;
38427;SDS011;24211;49.980;19.776;2023-02-03T03:48:12;6.90;;;2.47;;
38427;SDS011;24211;49.980;19.776;2023-02-03T03:50:55;7.57;;;2.78;;
38427;SDS011;24211;49.980;19.776;2023-02-03T03:53:34;6.88;;;2.55;;
38427;SDS011;24211;49.980;19.776;2023-02-03T03:56:06;6.47;;;2.55;;
38427;SDS011;24211;49.980;19.776;2023-02-03T03:58:41;5.47;;;2.22;;
38427;SDS011;24211;49.980;19.776;2023-02-03T04:01:15;6.47;;;2.45;;
38427;SDS011;24211;49.980;19.776;2023-02-03T04:03:45;7.38;;;2.92;;
38427;SDS011;24211;49.980;19.776;2023-02-03T04:06:19;7.35;;;2.72;;
38427;SDS011;24211;49.980;19.776;2023-02-03T04:08:46;6.63;;;2.70;;
38427;SDS011;24211;49.980;19.776;2023-02-03T04:11:14;7.38;;;3.20;;
38427;SDS011;24211;49.980;19.776;2023-02-03T04:14:02;6.32;;;2.97;;
38427;SDS011;24211;49.980;19.776;2023-02-03T04:16:30;7.97;;;2.75;;
38427;SDS011;24211;49.980;19.776;2023-02-03T04:18:57;8.25;;;3.10;;
38427;SDS011;24211;49.980;19.776;2023-02-03T04:21:25;8.30;;;3.33;;
38427;SDS011;24211;49.980;19.776;2023-02-03T04:23:52;8.63;;;3.53;;
38427;SDS011;24211;49.980;19.776;2023-02-03T04:26:22;8.05;;;3.80;;
38427;SDS011;24211;49.980;19.776;2023-02-03T04:28:49;11.60;;;3.80;;
38427;SDS011;24211;49.980;19.776;2023-02-03T04:31:17;10.15;;;4.10;;
38427;SDS011;24211;49.980;19.776;2023-02-03T04:33:44;8.95;;;3.80;;
38427;SDS011;24211;49.980;19.776;2023-02-03T04:36:12;10.13;;;4.20;;
38427;SDS011;24211;49.980;19.776;2023-02-03T04:38:40;10.70;;;4.70;;
38427;SDS011;24211;49.980;19.776;2023-02-03T04:41:08;10.35;;;4.38;;
38427;SDS011;24211;49.980;19.776;2023-02-03T04:43:35;11.45;;;4.32;;
38427;SDS011;24211;49.980;19.776;2023-02-03T04:46:03;10.57;;;4.45;;
38427;SDS011;24211;49.980;19.776;2023-02-03T04:48:30;11.10;;;5.10;;
38427;SDS011;24211;49.980;19.776;2023-02-03T04:51:01;14.80;;;4.95;;
38427;SDS011;24211;49.980;19.776;2023-02-03T04:53:31;12.88;;;4.47;;
38427;SDS011;24211;49.980;19.776;2023-02-03T04:55:59;10.73;;;4.15;;
38427;SDS011;24211;49.980;19.776;2023-02-03T04:58:28;10.32;;;3.90;;
38427;SDS011;24211;49.980;19.776;2023-02-03T05:00:55;10.88;;;4.05;;
38427;SDS011;24211;49.980;19.776;2023-02-03T05:03:23;11.35;;;4.28;;
38427;SDS011;24211;49.980;19.776;2023-02-03T05:05:55;12.55;;;4.85;;
38427;SDS011;24211;49.980;19.776;2023-02-03T05:08:22;13.45;;;4.70;;
38427;SDS011;24211;49.980;19.776;2023-02-03T05:10:50;11.65;;;4.28;;
38427;SDS011;24211;49.980;19.776;2023-02-03T05:13:18;12.20;;;4.50;;
38427;SDS011;24211;49.980;19.776;2023-02-03T05:15:45;12.20;;;4.35;;
38427;SDS011;24211;49.980;19.776;2023-02-03T05:18:12;11.07;;;4.15;;
38427;SDS011;24211;49.980;19.776;2023-02-03T05:20:40;12.32;;;4.38;;
38427;SDS011;24211;49.980;19.776;2023-02-03T05:23:07;11.88;;;4.50;;
38427;SDS011;24211;49.980;19.776;2023-02-03T05:25:34;11.45;;;4.50;;
38427;SDS011;24211;49.980;19.776;2023-02-03T05:28:02;10.38;;;3.95;;
38427;SDS011;24211;49.980;19.776;2023-02-03T05:30:29;11.75;;;4.25;;
38427;SDS011;24211;49.980;19.776;2023-02-03T05:32:57;10.52;;;3.95;;
38427;SDS011;24211;49.980;19.776;2023-02-03T05:35:24;8.75;;;3.72;;
38427;SDS011;24211;49.980;19.776;2023-02-03T05:37:51;10.18;;;4.35;;
38427;SDS011;24211;49.980;19.776;2023-02-03T05:40:19;10.98;;;3.92;;
38427;SDS011;24211;49.980;19.776;2023-02-03T05:43:18;11.85;;;3.90;;
38427;SDS011;24211;49.980;19.776;2023-02-03T05:45:46;9.02;;;3.35;;
38427;SDS011;24211;49.980;19.776;2023-02-03T05:48:13;8.70;;;3.33;;
38427;SDS011;24211;49.980;19.776;2023-02-03T05:50:40;9.30;;;3.30;;
38427;SDS011;24211;49.980;19.776;2023-02-03T05:53:09;10.70;;;3.53;;
38427;SDS011;24211;49.980;19.776;2023-02-03T05:55:37;8.82;;;3.50;;
38427;SDS011;24211;49.980;19.776;2023-02-03T05:58:04;10.73;;;3.80;;
38427;SDS011;24211;49.980;19.776;2023-02-03T06:00:31;8.55;;;3.40;;
38427;SDS011;24211;49.980;19.776;2023-02-03T06:02:59;8.52;;;3.38;;
38427;SDS011;24211;49.980;19.776;2023-02-03T06:05:32;8.88;;;3.83;;
38427;SDS011;24211;49.980;19.776;2023-02-03T06:08:01;10.95;;;3.47;;
38427;SDS011;24211;49.980;19.776;2023-02-03T06:10:29;9.45;;;3.45;;
38427;SDS011;24211;49.980;19.776;2023-02-03T06:12:56;7.03;;;2.80;;
38427;SDS011;24211;49.980;19.776;2023-02-03T06:15:23;7.45;;;2.83;;
38427;SDS011;24211;49.980;19.776;2023-02-03T06:17:50;8.57;;;2.88;;
38427;SDS011;24211;49.980;19.776;2023-02-03T06:20:18;9.00;;;3.00;;
38427;SDS011;24211;49.980;19.776;2023-02-03T06:22:46;6.10;;;2.78;;
38427;SDS011;24211;49.980;19.776;2023-02-03T06:25:14;6.82;;;2.50;;
38427;SDS011;24211;49.980;19.776;2023-02-03T06:27:41;8.15;;;2.40;;
38427;SDS011;24211;49.980;19.776;2023-02-03T06:30:09;6.13;;;2.30;;
38427;SDS011;24211;49.980;19.776;2023-02-03T06:32:37;6.40;;;2.40;;
38427;SDS011;24211;49.980;19.776;2023-02-03T06:35:05;5.47;;;2.70;;
38427;SDS011;24211;49.980;19.776;2023-02-03T06:37:32;7.70;;;2.50;;
38427;SDS011;24211;49.980;19.776;2023-02-03T06:40:02;6.50;;;2.88;;
38427;SDS011;24211;49.980;19.776;2023-02-03T06:42:30;7.05;;;2.60;;
38427;SDS011;24211;49.980;19.776;2023-02-03T06:44:57;5.70;;;2.53;;
38427;SDS011;24211;49.980;19.776;2023-02-03T06:47:24;7.03;;;2.40;;
38427;SDS011;24211;49.980;19.776;2023-02-03T06:49:52;6.97;;;2.38;;
38427;SDS011;24211;49.980;19.776;2023-02-03T06:52:19;7.22;;;2.50;;
38427;SDS011;24211;49.980;19.776;2023-02-03T06:54:47;6.45;;;2.30;;
38427;SDS011;24211;49.980;19.776;2023-02-03T06:57:15;7.05;;;2.45;;
38427;SDS011;24211;49.980;19.776;2023-02-03T06:59:42;6.75;;;2.47;;
38427;SDS011;24211;49.980;19.776;2023-02-03T07:02:22;6.07;;;2.47;;
38427;SDS011;24211;49.980;19.776;2023-02-03T07:04:49;6.50;;;2.72;;
38427;SDS011;24211;49.980;19.776;2023-02-03T07:07:16;6.28;;;2.78;;
38427;SDS011;24211;49.980;19.776;2023-02-03T07:09:44;9.18;;;3.20;;
38427;SDS011;24211;49.980;19.776;2023-02-03T07:12:11;8.85;;;3.47;;
38427;SDS011;24211;49.980;19.776;2023-02-03T07:14:39;9.45;;;3.38;;
38427;SDS011;24211;49.980;19.776;2023-02-03T07:17:06;9.00;;;3.33;;
38427;SDS011;24211;49.980;19.776;2023-02-03T07:19:33;8.57;;;3.35;;
38427;SDS011;24211;49.980;19.776;2023-02-03T07:22:03;7.82;;;3.20;;
38427;SDS011;24211;49.980;19.776;2023-02-03T07:24:30;9.98;;;3.47;;
38427;SDS011;24211;49.980;19.776;2023-02-03T07:26:57;13.38;;;4.05;;
38427;SDS011;24211;49.980;19.776;2023-02-03T07:29:25;18.55;;;5.45;;
38427;SDS011;24211;49.980;19.776;2023-02-03T07:31:52;13.82;;;5.45;;
38427;SDS011;24211;49.980;19.776;2023-02-03T07:34:19;16.02;;;5.75;;
38427;SDS011;24211;49.980;19.776;2023-02-03T07:36:47;17.75;;;6.18;;
38427;SDS011;24211;49.980;19.776;2023-02-03T07:39:14;18.05;;;6.63;;
38427;SDS011;24211;49.980;19.776;2023-02-03T07:41:41;17.23;;;6.28;;
38427;SDS011;24211;49.980;19.776;2023-02-03T07:44:09;20.30;;;6.47;;
38427;SDS011;24211;49.980;19.776;2023-02-03T07:46:36;12.60;;;5.00;;
38427;SDS011;24211;49.980;19.776;2023-02-03T07:49:10;16.00;;;6.72;;
38427;SDS011;24211;49.980;19.776;2023-02-03T07:51:38;20.95;;;7.40;;
38427;SDS011;24211;49.980;19.776;2023-02-03T07:54:06;23.92;;;8.85;;
38427;SDS011;24211;49.980;19.776;2023-02-03T07:56:33;25.73;;;10.55;;
38427;SDS011;24211;49.980;19.776;2023-02-03T07:59:02;26.30;;;11.55;;
38427;SDS011;24211;49.980;19.776;2023-02-03T08:01:30;27.30;;;11.38;;
38427;SDS011;24211;49.980;19.776;2023-02-03T08:03:57;28.80;;;12.15;;
38427;SDS011;24211;49.980;19.776;2023-02-03T08:06:28;28.63;;;12.07;;
38427;SDS011;24211;49.980;19.776;2023-02-03T08:08:56;27.95;;;12.80;;
38427;SDS011;24211;49.980;19.776;2023-02-03T08:11:23;28.40;;;13.38;;
38427;SDS011;24211;49.980;19.776;2023-02-03T08:13:51;29.30;;;13.13;;
38427;SDS011;24211;49.980;19.776;2023-02-03T08:16:18;29.45;;;13.68;;
38427;SDS011;24211;49.980;19.776;2023-02-03T08:18:45;30.27;;;13.80;;
38427;SDS011;24211;49.980;19.776;2023-02-03T08:21:13;44.20;;;19.95;;
38427;SDS011;24211;49.980;19.776;2023-02-03T08:23:40;45.60;;;20.05;;
38427;SDS011;24211;49.980;19.776;2023-02-03T08:26:07;46.97;;;20.27;;
38427;SDS011;24211;49.980;19.776;2023-02-03T08:28:35;43.17;;;18.58;;
38427;SDS011;24211;49.980;19.776;2023-02-03T08:31:08;47.47;;;18.58;;
38427;SDS011;24211;49.980;19.776;2023-02-03T08:33:38;39.47;;;16.27;;
38427;SDS011;24211;49.980;19.776;2023-02-03T08:36:06;38.35;;;15.23;;
38427;SDS011;24211;49.980;19.776;2023-02-03T08:38:34;31.58;;;13.95;;
38427;SDS011;24211;49.980;19.776;2023-02-03T08:41:06;32.97;;;13.30;;
38427;SDS011;24211;49.980;19.776;2023-02-03T08:43:40;30.23;;;12.63;;
38427;SDS011;24211;49.980;19.776;2023-02-03T08:46:08;28.40;;;11.98;;
38427;SDS011;24211;49.980;19.776;2023-02-03T08:48:37;26.20;;;11.90;;
38427;SDS011;24211;49.980;19.776;2023-02-03T08:51:09;26.63;;;11.70;;
38427;SDS011;24211;49.980;19.776;2023-02-03T08:53:42;25.92;;;10.88;;
38427;SDS011;24211;49.980;19.776;2023-02-03T08:56:10;20.83;;;9.57;;
38427;SDS011;24211;49.980;19.776;2023-02-03T08:58:39;21.27;;;10.07;;
38427;SDS011;24211;49.980;19.776;2023-02-03T09:01:07;18.27;;;8.55;;
38427;SDS011;24211;49.980;19.776;2023-02-03T09:03:37;17.08;;;7.95;;
38427;SDS011;24211;49.980;19.776;2023-02-03T09:06:05;15.90;;;7.13;;
38427;SDS011;24211;49.980;19.776;2023-02-03T09:08:37;18.10;;;7.28;;
38427;SDS011;24211;49.980;19.776;2023-02-03T09:11:12;16.52;;;6.93;;
38427;SDS011;24211;49.980;19.776;2023-02-03T09:13:42;13.32;;;6.22;;
38427;SDS011;24211;49.980;19.776;2023-02-03T09:16:12;12.57;;;5.57;;
38427;SDS011;24211;49.980;19.776;2023-02-03T09:18:45;12.10;;;5.30;;
38427;SDS011;24211;49.980;19.776;2023-02-03T09:21:13;13.88;;;5.65;;
38427;SDS011;24211;49.980;19.776;2023-02-03T09:24:00;11.27;;;5.05;;
38427;SDS011;24211;49.980;19.776;2023-02-03T09:26:31;13.30;;;4.85;;
38427;SDS011;24211;49.980;19.776;2023-02-03T09:28:58;11.57;;;5.07;;
38427;SDS011;24211;49.980;19.776;2023-02-03T09:31:31;10.38;;;4.72;;
38427;SDS011;24211;49.980;19.776;2023-02-03T09:33:59;9.48;;;4.40;;
38427;SDS011;24211;49.980;19.776;2023-02-03T09:36:28;10.73;;;4.30;;
38427;SDS011;24211;49.980;19.776;2023-02-03T09:38:56;10.07;;;3.92;;
38427;SDS011;24211;49.980;19.776;2023-02-03T09:44:21;8.80;;;4.00;;
38427;SDS011;24211;49.980;19.776;2023-02-03T09:46:59;8.82;;;4.03;;
38427;SDS011;24211;49.980;19.776;2023-02-03T09:54:47;8.77;;;3.45;;
38427;SDS011;24211;49.980;19.776;2023-02-03T09:57:43;8.13;;;3.08;;
38427;SDS011;24211;49.980;19.776;2023-02-03T10:00:22;8.43;;;2.80;;
38427;SDS011;24211;49.980;19.776;2023-02-03T10:03:00;6.63;;;2.42;;
38427;SDS011;24211;49.980;19.776;2023-02-03T10:05:51;6.03;;;2.58;;
38427;SDS011;24211;49.980;19.776;2023-02-03T10:14:55;6.45;;;2.50;;
38427;SDS011;24211;49.980;19.776;2023-02-03T10:17:54;5.60;;;2.50;;
38427;SDS011;24211;49.980;19.776;2023-02-03T10:23:13;6.22;;;2.25;;
38427;SDS011;24211;49.980;19.776;2023-02-03T10:25:53;6.45;;;2.22;;
38427;SDS011;24211;49.980;19.776;2023-02-03T10:28:26;7.30;;;2.63;;
38427;SDS011;24211;49.980;19.776;2023-02-03T10:31:22;19.65;;;7.38;;
38427;SDS011;24211;49.980;19.776;2023-02-03T10:33:56;108.20;;;35.78;;
38427;SDS011;24211;49.980;19.776;2023-02-03T10:39:49;124.27;;;48.43;;
38427;SDS011;24211;49.980;19.776;2023-02-03T10:42:20;109.57;;;43.50;;
38427;SDS011;24211;49.980;19.776;2023-02-03T10:44:50;96.90;;;39.08;;
38427;SDS011;24211;49.980;19.776;2023-02-03T10:49:56;61.65;;;25.52;;
38427;SDS011;24211;49.980;19.776;2023-02-03T10:52:34;59.35;;;23.42;;
38427;SDS011;24211;49.980;19.776;2023-02-03T10:55:06;49.35;;;20.33;;
38427;SDS011;24211;49.980;19.776;2023-02-03T10:57:56;39.97;;;17.15;;
38427;SDS011;24211;49.980;19.776;2023-02-03T11:00:33;38.10;;;15.25;;
38427;SDS011;24211;49.980;19.776;2023-02-03T11:08:44;21.13;;;8.87;;
38427;SDS011;24211;49.980;19.776;2023-02-03T11:14:38;15.48;;;6.45;;
38427;SDS011;24211;49.980;19.776;2023-02-03T11:16:43;13.63;;;5.70;;
38427;SDS011;24211;49.980;19.776;2023-02-03T11:19:17;11.23;;;4.85;;
38427;SDS011;24211;49.980;19.776;2023-02-03T11:21:49;11.80;;;4.40;;
38427;SDS011;24211;49.980;19.776;2023-02-03T11:24:23;9.35;;;3.95;;
38427;SDS011;24211;49.980;19.776;2023-02-03T11:29:31;8.50;;;3.33;;
38427;SDS011;24211;49.980;19.776;2023-02-03T11:34:59;7.80;;;2.90;;
38427;SDS011;24211;49.980;19.776;2023-02-03T11:37:45;7.13;;;2.60;;
38427;SDS011;24211;49.980;19.776;2023-02-03T11:47:48;7.72;;;2.78;;
38427;SDS011;24211;49.980;19.776;2023-02-03T11:50:28;8.07;;;2.63;;
38427;SDS011;24211;49.980;19.776;2023-02-03T11:53:11;6.57;;;2.75;;
38427;SDS011;24211;49.980;19.776;2023-02-03T12:02:52;7.32;;;2.90;;
38427;SDS011;24211;49.980;19.776;2023-02-03T12:05:36;6.25;;;2.83;;
38427;SDS011;24211;49.980;19.776;2023-02-03T12:08:20;7.38;;;2.70;;
38427;SDS011;24211;49.980;19.776;2023-02-03T12:11:05;8.30;;;3.10;;
38427;SDS011;24211;49.980;19.776;2023-02-03T12:13:50;7.60;;;2.85;;
38427;SDS011;24211;49.980;19.776;2023-02-03T12:19:56;8.07;;;2.90;;
38427;SDS011;24211;49.980;19.776;2023-02-03T12:31:23;6.00;;;2.10;;
38427;SDS011;24211;49.980;19.776;2023-02-03T12:46:17;7.00;;;2.63;;
38427;SDS011;24211;49.980;19.776;2023-02-03T12:48:59;9.57;;;3.05;;
38427;SDS011;24211;49.980;19.776;2023-02-03T12:51:41;8.38;;;3.05;;
38427;SDS011;24211;49.980;19.776;2023-02-03T12:54:39;8.40;;;3.28;;
38427;SDS011;24211;49.980;19.776;2023-02-03T12:57:37;8.82;;;3.47;;
38427;SDS011;24211;49.980;19.776;2023-02-03T13:00:20;10.52;;;4.28;;
38427;SDS011;24211;49.980;19.776;2023-02-03T13:03:18;7.57;;;3.38;;
38427;SDS011;24211;49.980;19.776;2023-02-03T13:06:15;8.27;;;3.65;;
38427;SDS011;24211;49.980;19.776;2023-02-03T13:12:09;7.97;;;3.47;;
38427;SDS011;24211;49.980;19.776;2023-02-03T13:15:18;8.68;;;3.60;;
38427;SDS011;24211;49.980;19.776;2023-02-03T13:21:03;7.13;;;2.92;;
38427;SDS011;24211;49.980;19.776;2023-02-03T13:23:31;9.25;;;3.08;;
38427;SDS011;24211;49.980;19.776;2023-02-03T13:34:41;6.97;;;2.70;;
38427;SDS011;24211;49.980;19.776;2023-02-03T13:37:33;7.80;;;2.47;;
38427;SDS011;24211;49.980;19.776;2023-02-03T13:43:05;6.35;;;2.80;;
38427;SDS011;24211;49.980;19.776;2023-02-03T13:46:03;6.35;;;2.80;;
38427;SDS011;24211;49.980;19.776;2023-02-03T13:48:36;7.38;;;3.13;;
38427;SDS011;24211;49.980;19.776;2023-02-03T13:51:23;6.55;;;3.60;;
38427;SDS011;24211;49.980;19.776;2023-02-03T13:54:07;8.95;;;4.70;;
38427;SDS011;24211;49.980;19.776;2023-02-03T13:57:01;11.05;;;5.53;;
38427;SDS011;24211;49.980;19.776;2023-02-03T13:59:45;11.25;;;5.22;;
38427;SDS011;24211;49.980;19.776;2023-02-03T14:04:51;13.70;;;5.75;;
38427;SDS011;24211;49.980;19.776;2023-02-03T14:15:22;52.83;;;20.92;;
38427;SDS011;24211;49.980;19.776;2023-02-03T14:18:07;72.85;;;27.58;;
38427;SDS011;24211;49.980;19.776;2023-02-03T14:21:22;81.20;;;32.00;;
38427;SDS011;24211;49.980;19.776;2023-02-03T14:23:51;83.65;;;32.38;;
38427;SDS011;24211;49.980;19.776;2023-02-03T14:29:04;80.47;;;32.42;;
38427;SDS011;24211;49.980;19.776;2023-02-03T14:34:30;65.35;;;28.20;;
38427;SDS011;24211;49.980;19.776;2023-02-03T14:40:21;49.25;;;21.65;;
38427;SDS011;24211;49.980;19.776;2023-02-03T14:46:39;40.17;;;17.40;;
38427;SDS011;24211;49.980;19.776;2023-02-03T14:58:33;25.02;;;11.45;;
38427;SDS011;24211;49.980;19.776;2023-02-03T15:01:26;22.42;;;10.02;;
38427;SDS011;24211;49.980;19.776;2023-02-03T15:06:41;18.48;;;9.35;;
38427;SDS011;24211;49.980;19.776;2023-02-03T15:09:19;17.50;;;8.75;;
38427;SDS011;24211;49.980;19.776;2023-02-03T15:12:18;14.23;;;6.93;;
38427;SDS011;24211;49.980;19.776;2023-02-03T15:14:52;14.27;;;7.82;;
38427;SDS011;24211;49.980;19.776;2023-02-03T15:17:59;15.27;;;7.57;;
38427;SDS011;24211;49.980;19.776;2023-02-03T15:20:46;13.07;;;7.43;;
38427;SDS011;24211;49.980;19.776;2023-02-03T15:23:27;13.00;;;7.05;;
38427;SDS011;24211;49.980;19.776;2023-02-03T15:25:59;14.65;;;7.03;;
38427;SDS011;24211;49.980;19.776;2023-02-03T15:28:39;14.63;;;7.15;;
38427;SDS011;24211;49.980;19.776;2023-02-03T15:33:51;16.73;;;8.20;;
38427;SDS011;24211;49.980;19.776;2023-02-03T15:41:48;19.17;;;7.63;;
38427;SDS011;24211;49.980;19.776;2023-02-03T15:44:33;18.98;;;7.38;;
38427;SDS011;24211;49.980;19.776;2023-02-03T15:47:16;16.35;;;6.90;;
38427;SDS011;24211;49.980;19.776;2023-02-03T15:49:58;12.57;;;5.40;;
38427;SDS011;24211;49.980;19.776;2023-02-03T15:52:55;14.00;;;5.32;;
38427;SDS011;24211;49.980;19.776;2023-02-03T15:58:19;9.63;;;3.90;;
38427;SDS011;24211;49.980;19.776;2023-02-03T16:00:57;9.63;;;4.05;;
38427;SDS011;24211;49.980;19.776;2023-02-03T16:03:44;8.88;;;3.75;;
38427;SDS011;24211;49.980;19.776;2023-02-03T16:09:02;7.00;;;2.90;;
38427;SDS011;24211;49.980;19.776;2023-02-03T16:11:34;7.82;;;3.03;;
38427;SDS011;24211;49.980;19.776;2023-02-03T16:14:05;7.38;;;2.70;;
38427;SDS011;24211;49.980;19.776;2023-02-03T16:16:40;6.00;;;2.35;;
38427;SDS011;24211;49.980;19.776;2023-02-03T16:19:31;5.47;;;1.75;;
38427;SDS011;24211;49.980;19.776;2023-02-03T16:22:03;6.63;;;2.00;;
38427;SDS011;24211;49.980;19.776;2023-02-03T16:25:11;6.00;;;1.80;;
38427;SDS011;24211;49.980;19.776;2023-02-03T16:28:20;4.43;;;1.60;;
38427;SDS011;24211;49.980;19.776;2023-02-03T16:34:01;6.00;;;1.95;;
38427;SDS011;24211;49.980;19.776;2023-02-03T16:36:57;5.45;;;1.65;;
38427;SDS011;24211;49.980;19.776;2023-02-03T16:39:44;6.38;;;2.17;;
38427;SDS011;24211;49.980;19.776;2023-02-03T16:42:35;4.43;;;1.75;;
38427;SDS011;24211;49.980;19.776;2023-02-03T16:45:24;4.85;;;1.83;;
38427;SDS011;24211;49.980;19.776;2023-02-03T16:48:11;3.88;;;1.60;;
38427;SDS011;24211;49.980;19.776;2023-02-03T16:51:01;5.07;;;1.95;;
38427;SDS011;24211;49.980;19.776;2023-02-03T16:53:36;6.38;;;2.30;;
38427;SDS011;24211;49.980;19.776;2023-02-03T16:56:04;8.50;;;3.08;;
38427;SDS011;24211;49.980;19.776;2023-02-03T16:58:31;7.68;;;2.80;;
38427;SDS011;24211;49.980;19.776;2023-02-03T17:01:00;9.18;;;3.25;;
38427;SDS011;24211;49.980;19.776;2023-02-03T17:03:30;6.68;;;2.67;;
38427;SDS011;24211;49.980;19.776;2023-02-03T17:06:05;10.48;;;2.75;;
38427;SDS011;24211;49.980;19.776;2023-02-03T17:08:36;17.33;;;4.70;;
38427;SDS011;24211;49.980;19.776;2023-02-03T17:11:11;23.38;;;6.85;;
38427;SDS011;24211;49.980;19.776;2023-02-03T17:13:43;23.40;;;5.80;;
38427;SDS011;24211;49.980;19.776;2023-02-03T17:16:22;24.05;;;7.00;;
38427;SDS011;24211;49.980;19.776;2023-02-03T17:18:52;16.90;;;4.60;;
38427;SDS011;24211;49.980;19.776;2023-02-03T17:21:24;13.55;;;3.88;;
38427;SDS011;24211;49.980;19.776;2023-02-03T17:23:54;13.70;;;3.67;;
38427;SDS011;24211;49.980;19.776;2023-02-03T17:26:25;10.45;;;3.42;;
38427;SDS011;24211;49.980;19.776;2023-02-03T17:28:52;11.88;;;3.70;;
38427;SDS011;24211;49.980;19.776;2023-02-03T17:31:19;11.10;;;3.20;;
38427;SDS011;24211;49.980;19.776;2023-02-03T17:33:50;9.88;;;3.10;;
38427;SDS011;24211;49.980;19.776;2023-02-03T17:36:18;15.55;;;3.95;;
38427;SDS011;24211;49.980;19.776;2023-02-03T17:38:48;10.88;;;3.58;;
38427;SDS011;24211;49.980;19.776;2023-02-03T17:41:40;6.72;;;2.42;;
38427;SDS011;24211;49.980;19.776;2023-02-03T17:44:27;9.55;;;3.35;;
38427;SDS011;24211;49.980;19.776;2023-02-03T17:47:12;8.88;;;3.33;;
38427;SDS011;24211;49.980;19.776;2023-02-03T17:49:57;9.73;;;3.35;;
38427;SDS011;24211;49.980;19.776;2023-02-03T17:52:43;7.28;;;2.53;;
38427;SDS011;24211;49.980;19.776;2023-02-03T17:55:29;12.38;;;3.97;;
38427;SDS011;24211;49.980;19.776;2023-02-03T17:57:59;13.02;;;3.58;;
38427;SDS011;24211;49.980;19.776;2023-02-03T18:00:28;14.10;;;4.00;;
38427;SDS011;24211;49.980;19.776;2023-02-03T18:02:56;16.13;;;4.68;;
38427;SDS011;24211;49.980;19.776;2023-02-03T18:05:24;14.45;;;4.63;;
38427;SDS011;24211;49.980;19.776;2023-02-03T18:07:52;12.23;;;3.83;;
38427;SDS011;24211;49.980;19.776;2023-02-03T18:10:19;13.25;;;3.05;;
38427;SDS011;24211;49.980;19.776;2023-02-03T18:12:47;12.15;;;4.00;;
38427;SDS011;24211;49.980;19.776;2023-02-03T18:15:14;12.55;;;4.05;;
38427;SDS011;24211;49.980;19.776;2023-02-03T18:17:42;11.88;;;4.40;;